Time;durP1;ratioP1;P1;durP2;ratioP2;P2;SDS_P1;SDS_P2;PMS_P1;PMS_P2;Temp;Humidity;BMP_temperature;BMP_pressure;BME280_temperature;BME280_humidity;BME280_pressure;Samples;Min_cycle;Max_cycle;Signal;HPM_P1;HPM_P2
2022/03/24 00:00:21;;;;;;;12.30;10.98;;;6.30;52.40;;;;;;632927;227;26721;-65
2022/03/24 00:02:49;;;;;;;13.13;11.73;;;6.30;52.60;;;;;;633015;227;26500;-66
2022/03/24 00:05:16;;;;;;;13.07;11.73;;;6.20;52.60;;;;;;632788;227;26862;-67
2022/03/24 00:07:43;;;;;;;12.93;11.50;;;6.10;52.70;;;;;;632705;227;26547;-66
2022/03/24 00:10:10;;;;;;;13.20;11.80;;;6.00;52.80;;;;;;632681;227;26786;-66
2022/03/24 00:12:39;;;;;;;13.60;12.10;;;6.00;53.00;;;;;;632681;227;26576;-67
2022/03/24 00:15:06;;;;;;;13.62;12.20;;;6.10;53.00;;;;;;632627;227;27206;-67
2022/03/24 00:17:33;;;;;;;15.18;12.73;;;6.00;53.50;;;;;;632684;227;26582;-65
2022/03/24 00:20:00;;;;;;;14.50;12.37;;;6.00;53.20;;;;;;632645;227;26806;-67
2022/03/24 00:22:27;;;;;;;13.27;11.93;;;6.00;53.20;;;;;;632600;227;26552;-66
2022/03/24 00:24:54;;;;;;;13.82;12.07;;;5.90;53.30;;;;;;632711;227;26771;-67
2022/03/24 00:27:22;;;;;;;13.95;12.55;;;5.90;53.50;;;;;;632664;227;26563;-66
2022/03/24 00:29:49;;;;;;;12.98;11.63;;;5.80;53.60;;;;;;632674;227;26818;-65
2022/03/24 00:32:17;;;;;;;12.75;11.45;;;5.70;53.70;;;;;;632658;227;26823;-65
2022/03/24 00:34:45;;;;;;;13.25;11.95;;;5.70;53.90;;;;;;632657;227;26592;-67
2022/03/24 00:37:11;;;;;;;13.68;12.15;;;5.80;53.90;;;;;;632668;227;26560;-66
2022/03/24 00:39:40;;;;;;;14.55;12.60;;;5.80;53.80;;;;;;632653;227;26595;-65
2022/03/24 00:42:11;;;;;;;13.88;12.18;;;5.80;54.00;;;;;;634677;225;26513;-66
2022/03/24 00:44:36;;;;;;;13.43;12.05;;;5.80;54.10;;;;;;634039;227;26493;-66
2022/03/24 00:47:03;;;;;;;13.85;12.45;;;5.80;54.00;;;;;;633994;227;26470;-66
2022/03/24 00:49:31;;;;;;;13.35;11.82;;;5.70;54.00;;;;;;633854;227;26462;-66
2022/03/24 00:51:58;;;;;;;13.80;12.18;;;5.70;54.20;;;;;;633556;227;26520;-65
2022/03/24 00:54:26;;;;;;;13.25;11.85;;;5.70;54.30;;;;;;633624;227;26526;-65
2022/03/24 00:56:54;;;;;;;12.52;11.23;;;5.70;54.30;;;;;;633675;227;26522;-65
2022/03/24 00:59:22;;;;;;;13.88;12.45;;;5.60;54.40;;;;;;633481;227;26728;-64
2022/03/24 01:01:48;;;;;;;13.18;11.90;;;5.60;54.40;;;;;;633319;227;26732;-66
2022/03/24 01:04:16;;;;;;;13.98;12.27;;;5.60;54.40;;;;;;633312;227;26472;-66
2022/03/24 01:06:43;;;;;;;14.05;12.55;;;5.60;54.60;;;;;;633134;227;26911;-66
2022/03/24 01:09:10;;;;;;;14.05;12.37;;;5.70;54.60;;;;;;632984;227;26529;-64
2022/03/24 01:11:37;;;;;;;15.82;12.30;;;5.60;54.70;;;;;;633021;227;26741;-66
2022/03/24 01:14:05;;;;;;;14.00;12.55;;;5.50;54.70;;;;;;632996;227;26495;-65
2022/03/24 01:16:32;;;;;;;13.50;12.13;;;5.50;54.80;;;;;;632887;225;26776;-66
2022/03/24 01:18:59;;;;;;;13.45;11.85;;;5.50;55.00;;;;;;632622;227;26563;-65
2022/03/24 01:21:26;;;;;;;14.35;12.70;;;5.40;55.00;;;;;;632782;227;26799;-66
2022/03/24 01:23:53;;;;;;;13.75;12.32;;;5.40;55.10;;;;;;632738;227;26556;-65
2022/03/24 01:26:22;;;;;;;14.40;12.90;;;5.40;55.20;;;;;;632771;227;26790;-66
2022/03/24 01:28:48;;;;;;;14.68;12.37;;;5.40;55.30;;;;;;632595;227;26564;-67
2022/03/24 01:31:16;;;;;;;15.43;13.35;;;5.30;55.50;;;;;;632661;227;26831;-66
2022/03/24 01:33:43;;;;;;;15.55;12.63;;;5.20;55.70;;;;;;632714;227;26539;-65
2022/03/24 01:36:11;;;;;;;13.88;12.48;;;5.30;55.80;;;;;;632780;227;26552;-64
2022/03/24 01:38:39;;;;;;;15.77;12.32;;;5.20;55.90;;;;;;632741;227;26552;-64
2022/03/24 01:41:07;;;;;;;13.98;12.57;;;5.20;56.10;;;;;;632747;227;26574;-65
2022/03/24 01:43:35;;;;;;;12.15;10.95;;;5.20;56.80;;;;;;632698;227;26526;-64
2022/03/24 01:46:02;;;;;;;13.25;11.85;;;5.10;56.40;;;;;;632563;227;26591;-64
2022/03/24 01:48:30;;;;;;;12.68;11.25;;;5.10;56.40;;;;;;632626;227;26572;-65
2022/03/24 01:50:57;;;;;;;13.88;12.40;;;5.00;56.50;;;;;;632617;227;26562;-64
2022/03/24 01:53:24;;;;;;;13.90;11.52;;;4.90;56.70;;;;;;634241;225;26549;-65
2022/03/24 01:55:54;;;;;;;14.05;11.00;;;5.00;56.90;;;;;;633866;227;26771;-65
2022/03/24 01:58:18;;;;;;;13.10;11.32;;;4.80;56.90;;;;;;633534;227;26514;-65
2022/03/24 02:00:45;;;;;;;12.65;11.38;;;4.80;57.20;;;;;;633498;227;27156;-64
2022/03/24 02:03:14;;;;;;;12.43;11.12;;;4.80;57.30;;;;;;633315;227;26566;-65
2022/03/24 02:05:40;;;;;;;11.82;10.63;;;4.80;57.20;;;;;;633189;227;26809;-66
2022/03/24 02:08:07;;;;;;;12.85;10.80;;;4.70;57.30;;;;;;633330;227;26550;-64
2022/03/24 02:10:35;;;;;;;12.73;11.40;;;4.70;57.50;;;;;;633090;227;27049;-65
2022/03/24 02:13:03;;;;;;;12.10;10.85;;;4.70;57.70;;;;;;632992;227;26571;-64
2022/03/24 02:15:29;;;;;;;14.35;10.55;;;4.70;57.70;;;;;;633170;227;26798;-65
2022/03/24 02:17:56;;;;;;;11.55;10.35;;;4.60;57.80;;;;;;638697;225;26572;-64
2022/03/24 02:20:25;;;;;;;13.85;11.07;;;4.70;57.90;;;;;;638821;225;26490;-65
2022/03/24 02:22:53;;;;;;;11.45;10.35;;;4.60;58.20;;;;;;638796;225;26498;-65
2022/03/24 02:25:22;;;;;;;11.15;10.02;;;4.70;58.30;;;;;;638479;225;26544;-63
2022/03/24 02:27:49;;;;;;;11.43;10.32;;;4.60;58.20;;;;;;626340;229;26535;-65
2022/03/24 02:30:15;;;;;;;10.57;9.48;;;4.70;58.20;;;;;;624440;230;26612;-65
2022/03/24 02:32:43;;;;;;;11.15;10.10;;;4.60;58.20;;;;;;626726;229;26554;-65
2022/03/24 02:35:13;;;;;;;12.05;10.40;;;4.60;58.20;;;;;;626678;229;26623;-65
2022/03/24 02:37:38;;;;;;;10.63;9.52;;;4.60;58.30;;;;;;626606;229;26579;-64
2022/03/24 02:40:06;;;;;;;11.88;10.55;;;4.50;58.60;;;;;;626713;229;26824;-64
2022/03/24 02:42:33;;;;;;;12.65;9.95;;;4.60;59.00;;;;;;626742;229;26836;-65
2022/03/24 02:45:02;;;;;;;10.00;8.98;;;4.50;58.80;;;;;;626679;229;26633;-64
2022/03/24 02:47:29;;;;;;;10.65;9.65;;;4.50;58.90;;;;;;626645;229;26581;-64
2022/03/24 02:49:56;;;;;;;10.73;9.63;;;4.40;59.10;;;;;;626741;229;26548;-65
2022/03/24 02:52:23;;;;;;;10.95;9.85;;;4.50;59.10;;;;;;626765;229;26840;-65
2022/03/24 02:54:50;;;;;;;10.98;9.88;;;4.40;59.30;;;;;;626693;229;26639;-64
2022/03/24 02:57:17;;;;;;;11.12;9.52;;;4.50;59.20;;;;;;626737;229;26603;-65
2022/03/24 02:59:45;;;;;;;11.20;10.00;;;4.30;59.60;;;;;;626739;229;26576;-65
2022/03/24 03:02:13;;;;;;;9.70;8.80;;;4.30;60.00;;;;;;626716;229;26611;-64
2022/03/24 03:04:42;;;;;;;10.55;9.45;;;4.40;59.80;;;;;;628003;227;26636;-64
2022/03/24 03:07:10;;;;;;;10.52;9.43;;;4.40;60.30;;;;;;627990;229;26548;-65
2022/03/24 03:09:37;;;;;;;9.90;8.88;;;4.30;59.80;;;;;;627697;229;26560;-65
2022/03/24 03:12:05;;;;;;;9.77;8.88;;;4.30;59.80;;;;;;627935;229;26602;-65
2022/03/24 03:14:32;;;;;;;10.48;9.38;;;4.30;60.40;;;;;;627683;229;26614;-65
2022/03/24 03:17:00;;;;;;;9.85;8.95;;;4.30;60.70;;;;;;627689;229;26808;-65
2022/03/24 03:19:28;;;;;;;11.15;10.05;;;4.20;60.90;;;;;;627302;229;26633;-65
2022/03/24 03:21:54;;;;;;;9.90;9.00;;;4.30;61.10;;;;;;627195;229;26824;-65
2022/03/24 03:24:22;;;;;;;9.93;9.00;;;4.20;62.30;;;;;;626825;229;26552;-65
2022/03/24 03:26:50;;;;;;;10.05;9.05;;;4.20;62.50;;;;;;626999;229;26604;-65
2022/03/24 03:29:18;;;;;;;9.90;9.00;;;4.10;62.80;;;;;;626945;229;26556;-65
2022/03/24 03:31:45;;;;;;;10.48;9.38;;;4.20;62.90;;;;;;627063;229;26868;-64
2022/03/24 03:34:12;;;;;;;9.50;8.50;;;4.20;63.30;;;;;;627021;229;26574;-65
2022/03/24 03:36:40;;;;;;;9.02;8.23;;;4.10;64.40;;;;;;626964;229;26809;-64
2022/03/24 03:39:08;;;;;;;10.05;9.15;;;4.00;64.20;;;;;;626965;229;26795;-65
2022/03/24 03:41:36;;;;;;;9.25;8.45;;;4.00;64.90;;;;;;626562;229;26576;-65
2022/03/24 03:44:04;;;;;;;9.40;8.55;;;3.90;65.00;;;;;;626747;229;26630;-65
2022/03/24 03:46:31;;;;;;;9.20;8.25;;;3.90;65.00;;;;;;626684;229;26615;-65
2022/03/24 03:48:58;;;;;;;8.70;7.90;;;3.80;65.40;;;;;;626816;229;27336;-65
2022/03/24 03:51:27;;;;;;;9.32;8.43;;;3.80;65.90;;;;;;626777;229;26600;-64
2022/03/24 03:53:52;;;;;;;10.20;9.05;;;3.80;66.10;;;;;;626621;229;26600;-63
2022/03/24 03:56:21;;;;;;;9.40;8.48;;;3.80;67.40;;;;;;626711;229;26626;-65
2022/03/24 03:58:48;;;;;;;18.85;9.13;;;3.70;67.90;;;;;;626697;229;26599;-64
2022/03/24 04:01:15;;;;;;;8.75;7.85;;;3.60;67.80;;;;;;626759;229;26609;-65
2022/03/24 04:03:43;;;;;;;8.80;7.95;;;3.60;67.50;;;;;;626752;229;26614;-65
2022/03/24 04:06:10;;;;;;;9.10;8.20;;;3.60;67.80;;;;;;626608;229;27071;-64
2022/03/24 04:08:37;;;;;;;9.45;8.55;;;3.70;67.80;;;;;;626675;229;26555;-64
2022/03/24 04:11:06;;;;;;;9.10;8.13;;;3.80;67.60;;;;;;626712;229;26512;-64
2022/03/24 04:13:32;;;;;;;9.35;8.35;;;3.50;68.00;;;;;;626648;229;26552;-64
2022/03/24 04:16:00;;;;;;;8.98;8.15;;;3.40;68.80;;;;;;627887;227;26634;-64
2022/03/24 04:18:27;;;;;;;9.30;8.40;;;3.40;68.80;;;;;;627943;229;26832;-64
2022/03/24 04:20:55;;;;;;;9.98;8.50;;;3.30;69.10;;;;;;627693;229;26622;-64
2022/03/24 04:23:22;;;;;;;11.50;8.60;;;3.20;69.50;;;;;;627651;229;26931;-64
2022/03/24 04:25:49;;;;;;;8.63;7.85;;;3.20;69.60;;;;;;627312;229;26654;-64
2022/03/24 04:28:16;;;;;;;9.15;8.07;;;3.20;70.30;;;;;;627368;229;26884;-64
2022/03/24 04:30:44;;;;;;;8.95;8.15;;;3.20;70.00;;;;;;627343;229;26603;-64
2022/03/24 04:33:11;;;;;;;9.25;8.35;;;3.20;70.00;;;;;;627231;229;26611;-64
2022/03/24 04:35:38;;;;;;;9.10;8.20;;;3.20;71.00;;;;;;626975;229;26597;-64
2022/03/24 04:38:07;;;;;;;8.82;8.02;;;3.20;71.00;;;;;;627021;229;26786;-64
2022/03/24 04:40:33;;;;;;;8.77;7.87;;;3.20;70.80;;;;;;626990;229;26560;-65
2022/03/24 04:43:00;;;;;;;8.77;7.97;;;3.20;71.20;;;;;;626987;229;26852;-64
2022/03/24 04:45:32;;;;;;;8.77;7.93;;;3.10;71.10;;;;;;626964;229;26586;-65
2022/03/24 04:47:56;;;;;;;9.02;7.90;;;3.10;71.80;;;;;;626882;229;26561;-65
2022/03/24 04:50:24;;;;;;;9.07;8.18;;;3.20;72.20;;;;;;626981;229;26764;-65
2022/03/24 04:52:51;;;;;;;9.25;7.65;;;3.20;71.60;;;;;;626689;229;26809;-63
2022/03/24 04:55:19;;;;;;;8.63;7.82;;;3.20;72.00;;;;;;626720;229;26840;-63
2022/03/24 04:57:46;;;;;;;8.75;7.95;;;3.20;72.10;;;;;;626686;229;26555;-64
2022/03/24 05:00:17;;;;;;;8.93;8.00;;;3.10;71.90;;;;;;626687;229;26617;-64
2022/03/24 05:02:41;;;;;;;8.70;7.90;;;3.10;73.10;;;;;;626672;229;26596;-64
2022/03/24 05:05:10;;;;;;;8.73;7.93;;;3.20;72.50;;;;;;626683;229;26978;-65
2022/03/24 05:07:37;;;;;;;8.82;7.97;;;3.20;72.90;;;;;;626701;229;26620;-64
2022/03/24 05:10:05;;;;;;;9.35;8.32;;;3.30;72.80;;;;;;626703;229;26566;-65
2022/03/24 05:12:32;;;;;;;9.07;8.18;;;3.30;72.80;;;;;;626755;229;26615;-65
2022/03/24 05:15:00;;;;;;;8.52;7.72;;;3.30;73.00;;;;;;626704;229;27255;-65
2022/03/24 05:17:27;;;;;;;8.20;7.50;;;3.40;73.00;;;;;;626703;229;26551;-65
2022/03/24 05:19:54;;;;;;;8.40;7.60;;;3.30;73.40;;;;;;626727;229;26614;-65
2022/03/24 05:22:22;;;;;;;8.77;7.97;;;3.40;73.90;;;;;;626674;229;26558;-65
2022/03/24 05:24:49;;;;;;;9.40;8.48;;;3.40;73.90;;;;;;626721;229;26627;-63
2022/03/24 05:27:16;;;;;;;8.93;8.13;;;3.40;73.50;;;;;;627697;227;26631;-65
2022/03/24 05:29:44;;;;;;;7.93;7.22;;;3.40;74.70;;;;;;628175;229;26845;-65
2022/03/24 05:32:11;;;;;;;8.15;7.45;;;3.40;74.50;;;;;;627881;229;26571;-64
2022/03/24 05:34:38;;;;;;;8.73;7.93;;;3.40;75.20;;;;;;627681;229;26818;-65
2022/03/24 05:37:06;;;;;;;9.55;8.65;;;3.60;76.50;;;;;;627316;229;26612;-64
2022/03/24 05:39:34;;;;;;;7.80;7.20;;;3.70;74.10;;;;;;627223;229;26666;-63
2022/03/24 05:42:02;;;;;;;8.82;7.65;;;3.70;74.10;;;;;;627286;229;26939;-65
2022/03/24 05:44:28;;;;;;;8.15;7.30;;;3.70;74.20;;;;;;627242;229;26597;-64
2022/03/24 05:46:55;;;;;;;9.48;8.57;;;3.60;74.90;;;;;;626956;229;26799;-64
2022/03/24 05:49:23;;;;;;;9.02;8.15;;;3.70;74.00;;;;;;627093;229;26555;-64
2022/03/24 05:51:50;;;;;;;8.93;8.02;;;3.70;75.10;;;;;;627038;229;26555;-65
2022/03/24 05:54:18;;;;;;;8.77;7.85;;;3.80;74.10;;;;;;626862;229;26576;-65
2022/03/24 05:56:45;;;;;;;9.10;7.87;;;3.70;74.00;;;;;;627034;229;26534;-65
2022/03/24 05:59:13;;;;;;;8.30;7.50;;;3.70;73.50;;;;;;627011;229;26557;-65
2022/03/24 06:01:39;;;;;;;8.95;7.97;;;3.70;74.30;;;;;;626995;229;26822;-64
2022/03/24 06:04:07;;;;;;;8.10;7.40;;;3.80;74.90;;;;;;626766;229;26619;-64
2022/03/24 06:06:34;;;;;;;9.02;8.13;;;3.80;74.30;;;;;;626715;229;26840;-64
2022/03/24 06:09:03;;;;;;;9.43;8.43;;;3.90;73.90;;;;;;626769;229;26897;-65
2022/03/24 06:11:30;;;;;;;8.52;7.75;;;4.00;74.70;;;;;;627050;229;26616;-65
2022/03/24 06:13:58;;;;;;;8.52;7.80;;;4.20;73.90;;;;;;626801;229;26634;-65
2022/03/24 06:16:27;;;;;;;8.70;7.80;;;4.20;73.90;;;;;;626720;229;26844;-64
2022/03/24 06:18:52;;;;;;;9.18;8.13;;;4.20;73.20;;;;;;626648;229;26555;-65
2022/03/24 06:21:20;;;;;;;9.40;8.50;;;4.20;74.10;;;;;;626644;229;27209;-65
2022/03/24 06:23:47;;;;;;;9.40;8.45;;;4.20;73.20;;;;;;626713;229;26603;-64
2022/03/24 06:26:14;;;;;;;8.98;8.18;;;4.30;73.00;;;;;;626685;229;26647;-64
2022/03/24 06:28:42;;;;;;;9.60;8.70;;;4.50;72.50;;;;;;626736;229;26572;-65
2022/03/24 06:31:12;;;;;;;9.73;8.82;;;4.50;72.50;;;;;;626790;229;26661;-64
2022/03/24 06:33:37;;;;;;;9.57;8.52;;;4.50;71.60;;;;;;626878;229;26816;-64
2022/03/24 06:36:05;;;;;;;8.98;8.07;;;4.70;71.90;;;;;;626629;229;26583;-64
2022/03/24 06:38:33;;;;;;;9.77;8.88;;;4.70;71.90;;;;;;627461;227;26846;-63
2022/03/24 06:41:00;;;;;;;9.73;8.75;;;4.80;71.40;;;;;;628192;229;26612;-64
2022/03/24 06:43:27;;;;;;;10.07;8.98;;;4.80;71.10;;;;;;627761;229;26563;-64
2022/03/24 06:45:55;;;;;;;9.25;8.35;;;4.90;70.90;;;;;;627611;229;26624;-64
2022/03/24 06:48:23;;;;;;;9.60;8.70;;;4.90;70.80;;;;;;627445;229;26567;-65
2022/03/24 06:50:50;;;;;;;9.65;8.73;;;4.80;70.60;;;;;;627311;229;26826;-65
2022/03/24 06:53:17;;;;;;;9.55;8.63;;;4.90;70.60;;;;;;627339;229;26603;-65
2022/03/24 06:55:45;;;;;;;9.35;8.38;;;5.00;71.10;;;;;;627279;229;27373;-65
2022/03/24 06:58:12;;;;;;;9.30;8.40;;;5.10;70.50;;;;;;627077;229;26566;-65
2022/03/24 07:00:39;;;;;;;10.90;8.57;;;5.20;70.70;;;;;;627033;229;26556;-65
2022/03/24 07:03:07;;;;;;;9.00;8.20;;;5.50;69.90;;;;;;626942;229;26575;-65
2022/03/24 07:05:37;;;;;;;8.98;8.07;;;5.50;69.80;;;;;;626982;229;26615;-65
2022/03/24 07:08:04;;;;;;;8.70;7.90;;;5.50;69.80;;;;;;627259;229;26797;-64
2022/03/24 07:10:29;;;;;;;8.27;7.53;;;5.70;68.60;;;;;;627390;229;26533;-64
2022/03/24 07:12:56;;;;;;;8.90;8.00;;;5.80;68.10;;;;;;627399;229;26804;-64
2022/03/24 07:15:25;;;;;;;9.30;8.40;;;5.90;69.30;;;;;;626916;229;26623;-65
2022/03/24 07:17:51;;;;;;;9.23;8.40;;;6.00;68.30;;;;;;626792;229;26548;-64
2022/03/24 07:20:19;;;;;;;8.95;8.07;;;6.40;68.10;;;;;;626706;229;26614;-64
2022/03/24 07:22:47;;;;;;;8.20;7.50;;;6.40;68.10;;;;;;626711;229;26554;-64
2022/03/24 07:25:14;;;;;;;9.07;8.23;;;6.40;67.90;;;;;;626732;229;26983;-64
2022/03/24 07:27:42;;;;;;;9.32;8.40;;;6.50;66.20;;;;;;626735;229;26626;-64
2022/03/24 07:30:09;;;;;;;8.98;8.10;;;6.50;66.60;;;;;;626663;229;26829;-64
2022/03/24 07:32:36;;;;;;;8.65;7.85;;;6.60;66.20;;;;;;626682;229;26547;-64
2022/03/24 07:35:04;;;;;;;9.07;8.18;;;6.60;65.50;;;;;;626697;229;27360;-60
2022/03/24 07:37:31;;;;;;;8.93;8.13;;;6.60;65.60;;;;;;626717;229;26606;-60
2022/03/24 07:39:58;;;;;;;8.93;8.13;;;6.70;66.00;;;;;;626731;229;26821;-60
2022/03/24 07:42:26;;;;;;;8.77;7.87;;;6.80;66.20;;;;;;626666;229;26528;-60
2022/03/24 07:44:54;;;;;;;8.43;7.70;;;6.90;65.60;;;;;;626612;229;26587;-60
2022/03/24 07:47:22;;;;;;;8.80;7.97;;;6.90;65.60;;;;;;626716;229;26603;-60
2022/03/24 07:49:49;;;;;;;8.38;7.57;;;7.00;64.60;;;;;;627270;227;26619;-60
2022/03/24 07:52:16;;;;;;;8.63;7.82;;;6.90;64.60;;;;;;628257;229;27257;-60
2022/03/24 07:54:45;;;;;;;9.43;8.40;;;7.00;65.00;;;;;;627844;229;26579;-60
2022/03/24 07:57:12;;;;;;;9.20;8.40;;;7.20;64.60;;;;;;627437;229;26597;-60
2022/03/24 07:59:40;;;;;;;8.63;7.82;;;7.40;64.50;;;;;;627428;229;26598;-61
2022/03/24 08:02:07;;;;;;;9.25;8.13;;;7.30;64.40;;;;;;627327;229;26618;-60
2022/03/24 08:04:34;;;;;;;8.98;8.15;;;7.50;63.80;;;;;;627362;229;26631;-61
2022/03/24 08:07:02;;;;;;;12.25;8.57;;;7.50;62.90;;;;;;627385;229;26863;-62
2022/03/24 08:09:29;;;;;;;11.95;8.20;;;7.70;63.00;;;;;;627073;229;26564;-62
2022/03/24 08:11:56;;;;;;;12.07;8.90;;;7.80;62.80;;;;;;626957;229;26554;-62
2022/03/24 08:14:23;;;;;;;13.75;9.30;;;7.80;62.10;;;;;;627012;229;26564;-62
2022/03/24 08:16:50;;;;;;;14.43;8.85;;;7.90;61.90;;;;;;627085;229;26557;-61
2022/03/24 08:19:18;;;;;;;15.25;9.50;;;7.90;61.80;;;;;;626995;229;26872;-61
2022/03/24 08:21:45;;;;;;;12.10;9.43;;;8.10;61.70;;;;;;627102;229;26557;-61
2022/03/24 08:24:12;;;;;;;11.82;9.77;;;8.10;61.30;;;;;;626953;229;26794;-61
2022/03/24 08:26:40;;;;;;;12.20;10.48;;;8.20;61.40;;;;;;622164;229;26623;-61
2022/03/24 08:29:07;;;;;;;14.18;10.65;;;8.30;60.70;;;;;;649766;221;26815;-61
2022/03/24 08:31:34;;;;;;;12.35;10.82;;;8.40;61.00;;;;;;637729;225;26524;-61
2022/03/24 08:34:01;;;;;;;14.07;11.20;;;8.50;60.20;;;;;;649718;221;27139;-61
2022/03/24 08:36:28;;;;;;;11.88;10.68;;;8.60;59.80;;;;;;637725;225;26542;-61
2022/03/24 08:38:56;;;;;;;15.82;11.25;;;8.70;59.70;;;;;;649790;221;26785;-61
2022/03/24 08:41:22;;;;;;;16.12;11.52;;;8.80;59.40;;;;;;625826;229;26612;-61
2022/03/24 08:43:50;;;;;;;13.55;11.85;;;8.80;59.40;;;;;;649774;221;27041;-60
2022/03/24 08:46:20;;;;;;;14.23;12.00;;;9.00;59.10;;;;;;637233;225;26545;-60
2022/03/24 08:48:46;;;;;;;21.70;12.30;;;9.10;58.80;;;;;;629792;227;26446;-60
2022/03/24 08:51:14;;;;;;;12.88;11.32;;;9.10;58.70;;;;;;631552;225;26491;-61
2022/03/24 08:53:42;;;;;;;12.75;11.23;;;9.10;58.70;;;;;;630397;225;26530;-61
2022/03/24 08:56:10;;;;;;;12.85;11.02;;;9.30;58.50;;;;;;630655;225;26565;-61
2022/03/24 08:58:38;;;;;;;12.82;11.43;;;9.40;58.20;;;;;;629746;225;26509;-61
2022/03/24 09:01:05;;;;;;;16.85;12.57;;;9.40;58.30;;;;;;641511;221;26528;-60
2022/03/24 09:03:32;;;;;;;14.35;11.93;;;9.50;57.80;;;;;;645007;220;26546;-63
2022/03/24 09:05:59;;;;;;;15.18;11.45;;;9.40;58.40;;;;;;632813;224;26569;-61
2022/03/24 09:08:26;;;;;;;16.33;11.70;;;9.50;58.00;;;;;;633664;225;26497;-60
2022/03/24 09:10:53;;;;;;;15.48;11.73;;;9.60;57.70;;;;;;638145;225;26704;-60
2022/03/24 09:13:21;;;;;;;21.90;13.07;;;9.70;58.20;;;;;;650295;221;26598;-60
2022/03/24 09:15:49;;;;;;;30.02;13.70;;;9.90;57.20;;;;;;632620;225;26745;-60
2022/03/24 09:18:16;;;;;;;68.25;22.00;;;9.90;57.20;;;;;;618052;231;26748;-59
2022/03/24 09:20:43;;;;;;;124.85;36.13;;;10.10;56.20;;;;;;619459;232;26622;-60
2022/03/24 09:23:11;;;;;;;145.27;44.33;;;10.20;57.00;;;;;;619647;232;26792;-59
2022/03/24 09:25:38;;;;;;;138.25;43.25;;;10.30;57.30;;;;;;631662;225;26523;-62
2022/03/24 09:28:06;;;;;;;132.32;39.22;;;10.30;58.50;;;;;;650102;221;26503;-62
2022/03/24 09:30:34;;;;;;;123.80;41.60;;;10.40;53.70;;;;;;636199;225;26549;-62
2022/03/24 09:33:02;;;;;;;112.30;40.00;;;10.40;53.50;;;;;;621351;231;26478;-61
2022/03/24 09:35:30;;;;;;;127.20;40.25;;;10.50;54.80;;;;;;632862;227;26500;-62
2022/03/24 09:37:57;;;;;;;97.95;35.90;;;10.50;54.80;;;;;;629893;227;26547;-62
2022/03/24 09:40:25;;;;;;;104.85;37.00;;;10.80;52.80;;;;;;629898;226;26983;-61
2022/03/24 09:42:51;;;;;;;91.87;35.35;;;11.20;51.90;;;;;;637553;225;26513;-61
2022/03/24 09:45:19;;;;;;;65.95;31.85;;;11.20;50.90;;;;;;649361;221;27329;-62
2022/03/24 09:47:46;;;;;;;63.55;28.35;;;11.20;53.30;;;;;;637342;225;26527;-61
2022/03/24 09:50:14;;;;;;;49.17;23.90;;;11.10;49.40;;;;;;649333;221;26878;-62
2022/03/24 09:52:40;;;;;;;28.80;18.73;;;11.10;50.60;;;;;;637315;225;26511;-62
2022/03/24 09:55:08;;;;;;;22.77;15.30;;;11.10;48.60;;;;;;649461;221;26625;-63
2022/03/24 09:57:35;;;;;;;21.70;13.50;;;11.00;48.50;;;;;;625611;230;26604;-61
2022/03/24 10:00:03;;;;;;;22.42;15.43;;;11.10;48.50;;;;;;649631;221;26755;-60
2022/03/24 10:02:30;;;;;;;20.25;15.35;;;11.20;45.40;;;;;;637681;225;26497;-60
2022/03/24 10:05:01;;;;;;;27.98;15.20;;;11.10;44.50;;;;;;649751;221;26798;-60
2022/03/24 10:07:29;;;;;;;18.87;13.40;;;11.20;45.30;;;;;;637716;225;26494;-60
2022/03/24 10:09:56;;;;;;;16.02;12.30;;;11.30;45.70;;;;;;649727;221;26538;-61
2022/03/24 10:12:24;;;;;;;18.95;13.02;;;11.60;47.40;;;;;;637734;225;26536;-59
2022/03/24 10:14:56;;;;;;;17.08;12.23;;;11.70;45.90;;;;;;651322;219;26552;-61
2022/03/24 10:17:23;;;;;;;13.95;11.20;;;11.60;45.90;;;;;;638851;225;26727;-60
2022/03/24 10:20:01;;;;;;;16.70;12.48;;;11.70;45.40;;;;;;650782;221;26572;-60
2022/03/24 10:22:28;;;;;;;14.95;11.57;;;11.70;46.00;;;;;;626523;229;26900;-60
2022/03/24 10:24:55;;;;;;;16.45;12.30;;;11.80;45.20;;;;;;650340;221;26617;-58
2022/03/24 10:27:23;;;;;;;14.95;11.80;;;11.90;45.40;;;;;;638269;225;26555;-59
2022/03/24 10:29:54;;;;;;;14.57;12.18;;;11.90;44.40;;;;;;650396;221;26599;-61
2022/03/24 10:32:19;;;;;;;16.25;11.75;;;11.90;44.40;;;;;;626112;229;26535;-59
2022/03/24 10:34:48;;;;;;;15.18;12.25;;;12.00;43.10;;;;;;650083;221;26531;-59
2022/03/24 10:37:17;;;;;;;15.93;12.10;;;12.00;43.10;;;;;;638079;225;26458;-60
2022/03/24 10:40:02;;;;;;;16.92;11.55;;;12.10;43.90;;;;;;650296;221;26744;-61
2022/03/24 10:42:27;;;;;;;19.17;11.52;;;12.10;44.30;;;;;;638088;225;26503;-61
2022/03/24 10:45:00;;;;;;;14.30;11.93;;;12.30;43.30;;;;;;650450;221;26511;-62
2022/03/24 10:47:40;;;;;;;16.98;11.75;;;12.30;43.30;;;;;;637959;225;26469;-62
2022/03/24 10:50:18;;;;;;;12.25;10.35;;;12.40;43.10;;;;;;650251;220;26542;-62
2022/03/24 10:52:45;;;;;;;12.73;10.68;;;12.40;43.10;;;;;;650201;221;26511;-61
2022/03/24 10:55:12;;;;;;;15.32;10.63;;;12.40;42.90;;;;;;650154;221;27007;-64
2022/03/24 10:57:40;;;;;;;13.73;10.45;;;12.30;43.10;;;;;;650209;221;26527;-65
2022/03/24 11:00:09;;;;;;;13.13;10.88;;;12.40;42.60;;;;;;649943;221;27193;-65
2022/03/24 11:02:36;;;;;;;14.60;10.65;;;12.40;42.50;;;;;;649805;221;26574;-66
2022/03/24 11:05:04;;;;;;;15.48;11.55;;;12.50;42.00;;;;;;649748;221;26822;-65
2022/03/24 11:07:30;;;;;;;13.85;11.38;;;12.60;42.80;;;;;;649601;221;26546;-65
2022/03/24 11:09:57;;;;;;;15.05;11.90;;;12.60;42.30;;;;;;649728;221;26764;-65
2022/03/24 11:12:28;;;;;;;14.50;12.20;;;12.70;42.00;;;;;;649840;221;26574;-64
2022/03/24 11:14:56;;;;;;;14.35;11.90;;;12.90;42.00;;;;;;649536;221;26639;-64
2022/03/24 11:17:24;;;;;;;14.18;11.52;;;13.10;41.50;;;;;;649704;221;26503;-65
2022/03/24 11:20:06;;;;;;;15.18;11.20;;;13.10;41.30;;;;;;649787;221;26537;-63
2022/03/24 11:22:37;;;;;;;18.30;12.23;;;13.10;41.20;;;;;;649881;221;26537;-65
2022/03/24 11:25:04;;;;;;;15.35;11.70;;;13.20;41.50;;;;;;650349;219;26580;-64
2022/03/24 11:27:31;;;;;;;15.88;12.20;;;13.20;41.30;;;;;;651251;221;26562;-64
2022/03/24 11:29:59;;;;;;;15.68;11.50;;;13.20;41.20;;;;;;650864;221;26550;-63
2022/03/24 11:32:27;;;;;;;13.77;11.70;;;13.20;41.60;;;;;;650762;221;26583;-64
2022/03/24 11:34:55;;;;;;;16.05;12.10;;;13.30;41.30;;;;;;650472;220;26596;-64
2022/03/24 11:37:23;;;;;;;15.73;12.18;;;13.30;41.10;;;;;;638412;225;26533;-65
2022/03/24 11:40:05;;;;;;;14.63;10.95;;;13.40;40.00;;;;;;650502;221;26589;-63
2022/03/24 11:42:33;;;;;;;14.25;11.70;;;13.50;39.40;;;;;;638242;225;26533;-63
2022/03/24 11:45:07;;;;;;;12.55;11.05;;;13.60;39.00;;;;;;649991;221;26539;-63
2022/03/24 11:47:35;;;;;;;15.55;11.00;;;13.70;39.00;;;;;;638122;225;26439;-63
2022/03/24 11:50:09;;;;;;;16.20;11.65;;;13.70;39.30;;;;;;650355;221;26545;-63
2022/03/24 11:52:36;;;;;;;21.48;12.73;;;13.70;39.30;;;;;;626450;228;26528;-63
2022/03/24 11:55:03;;;;;;;13.45;11.25;;;13.80;39.00;;;;;;650501;221;26515;-63
2022/03/24 11:57:31;;;;;;;15.43;11.00;;;13.80;38.90;;;;;;637931;225;26491;-64
2022/03/24 12:00:10;;;;;;;17.67;11.68;;;13.80;39.30;;;;;;650481;221;26471;-64
2022/03/24 12:02:38;;;;;;;17.27;11.38;;;14.00;38.90;;;;;;637858;225;26500;-64
2022/03/24 12:05:06;;;;;;;14.05;10.80;;;14.00;38.30;;;;;;649804;221;26589;-64
2022/03/24 12:07:34;;;;;;;15.52;10.75;;;14.00;38.30;;;;;;637726;225;26511;-64
2022/03/24 12:10:02;;;;;;;15.90;10.40;;;14.10;37.80;;;;;;649805;221;26507;-64
2022/03/24 12:12:29;;;;;;;12.23;9.80;;;14.10;38.00;;;;;;625687;230;26776;-63
2022/03/24 12:14:58;;;;;;;11.63;10.07;;;14.10;37.70;;;;;;649818;221;26530;-64
2022/03/24 12:17:32;;;;;;;14.60;10.45;;;14.10;38.40;;;;;;637625;225;26738;-64
2022/03/24 12:20:00;;;;;;;15.18;10.77;;;14.20;38.20;;;;;;649794;221;26486;-64
2022/03/24 12:22:31;;;;;;;13.27;10.63;;;14.30;38.70;;;;;;637644;225;26561;-64
2022/03/24 12:25:17;;;;;;;13.62;10.77;;;14.40;37.60;;;;;;649729;221;26530;-64
2022/03/24 12:27:54;;;;;;;12.00;10.13;;;14.40;37.10;;;;;;637469;225;26515;-65
2022/03/24 12:30:21;;;;;;;12.80;9.98;;;14.50;37.90;;;;;;649727;221;26518;-65
2022/03/24 12:33:04;;;;;;;11.48;10.27;;;14.60;38.10;;;;;;637711;225;26478;-65
2022/03/24 12:35:38;;;;;;;14.40;9.80;;;14.60;37.90;;;;;;649741;221;26587;-63
2022/03/24 12:38:33;;;;;;;14.65;10.23;;;14.60;37.90;;;;;;639529;224;26462;-63
2022/03/24 12:41:20;;;;;;;13.48;10.65;;;14.60;37.10;;;;;;650413;221;26755;-64
2022/03/24 12:43:46;;;;;;;11.77;10.30;;;14.60;37.00;;;;;;638562;225;26502;-64
2022/03/24 12:46:33;;;;;;;14.93;9.85;;;14.60;36.80;;;;;;650506;221;27217;-64